createdAt,value
2024-05-09T00:01:25.369Z,472.00
2024-05-09T00:02:25.539Z,473.00
2024-05-09T00:03:25.564Z,471.00
2024-05-09T00:04:25.671Z,473.00
2024-05-09T00:05:25.782Z,470.00
2024-05-09T00:06:25.793Z,470.00
2024-05-09T00:07:25.892Z,467.00
2024-05-09T00:08:26.078Z,465.00
2024-05-09T00:09:26.063Z,464.00
2024-05-09T00:10:34.594Z,463.00
2024-05-09T00:11:27.256Z,463.00
2024-05-09T00:12:26.353Z,465.00
2024-05-09T00:13:26.197Z,465.00
2024-05-09T00:14:26.344Z,467.00
2024-05-09T00:15:26.210Z,467.00
2024-05-09T00:16:26.219Z,468.00
2024-05-09T00:17:26.375Z,467.00
2024-05-09T00:18:26.374Z,465.00
2024-05-09T00:19:26.341Z,462.00
2024-05-09T00:20:33.249Z,462.00
2024-05-09T00:21:27.237Z,461.00
2024-05-09T00:22:26.256Z,462.00
2024-05-09T00:23:26.335Z,463.00
2024-05-09T00:24:26.304Z,463.00
2024-05-09T00:25:26.287Z,462.00
2024-05-09T00:26:26.295Z,463.00
2024-05-09T00:27:26.281Z,461.00
2024-05-09T00:28:26.269Z,462.00
2024-05-09T00:29:26.388Z,462.00
2024-05-09T00:30:33.331Z,462.00
2024-05-09T00:31:27.377Z,461.00
2024-05-09T00:32:26.681Z,460.00
2024-05-09T00:33:26.711Z,462.00
2024-05-09T00:34:26.502Z,460.00
2024-05-09T00:35:26.522Z,459.00
2024-05-09T00:36:26.412Z,460.00
2024-05-09T00:37:26.396Z,461.00
2024-05-09T00:38:26.469Z,461.00
2024-05-09T00:39:26.414Z,462.00
2024-05-09T00:40:34.497Z,465.00
2024-05-09T00:41:27.640Z,463.00
2024-05-09T00:42:26.499Z,462.00
2024-05-09T00:43:26.471Z,461.00
2024-05-09T00:44:26.593Z,461.00
2024-05-09T00:45:26.478Z,460.00
2024-05-09T00:46:26.489Z,461.00
2024-05-09T00:47:26.775Z,461.00
2024-05-09T00:48:26.843Z,459.00
2024-05-09T00:49:26.732Z,458.00
2024-05-09T00:50:35.319Z,456.00
2024-05-09T00:51:27.526Z,459.00
2024-05-09T00:52:26.527Z,459.00
2024-05-09T00:53:26.566Z,461.00
2024-05-09T00:54:26.545Z,463.00
2024-05-09T00:55:26.589Z,462.00
2024-05-09T00:56:26.688Z,461.00
2024-05-09T00:57:26.612Z,462.00
2024-05-09T00:58:26.583Z,465.00
2024-05-09T00:59:26.827Z,465.00
2024-05-09T01:00:34.627Z,463.00
2024-05-09T01:01:27.614Z,460.00
2024-05-09T01:02:26.735Z,461.00
2024-05-09T01:03:26.986Z,462.00
2024-05-09T01:04:26.648Z,463.00
2024-05-09T01:05:26.635Z,462.00
2024-05-09T01:06:26.571Z,463.00
2024-05-09T01:07:26.571Z,465.00
2024-05-09T01:08:26.598Z,466.00
2024-05-09T01:09:26.593Z,467.00
2024-05-09T01:11:26.739Z,468.00
2024-05-09T01:12:26.813Z,466.00
2024-05-09T01:13:26.737Z,461.00
2024-05-09T01:14:26.919Z,458.00
2024-05-09T01:15:26.830Z,459.00
2024-05-09T01:16:26.872Z,460.00
2024-05-09T01:17:27.002Z,461.00
2024-05-09T01:18:27.067Z,460.00
2024-05-09T01:19:27.032Z,460.00
2024-05-09T01:20:36.948Z,461.00
2024-05-09T01:21:28.063Z,461.00
2024-05-09T01:22:27.023Z,461.00
2024-05-09T01:23:27.042Z,465.00
2024-05-09T01:24:27.004Z,465.00
2024-05-09T01:25:27.005Z,464.00
2024-05-09T01:26:27.066Z,466.00
2024-05-09T01:27:26.990Z,464.00
2024-05-09T01:28:26.974Z,465.00
2024-05-09T01:29:27.048Z,468.00
2024-05-09T01:30:33.852Z,468.00
2024-05-09T01:31:27.940Z,464.00
2024-05-09T01:32:27.096Z,462.00
2024-05-09T01:33:27.275Z,464.00
2024-05-09T01:34:26.903Z,464.00
2024-05-09T01:35:27.029Z,463.00
2024-05-09T01:36:26.882Z,462.00
2024-05-09T01:37:26.888Z,463.00
2024-05-09T01:38:26.922Z,465.00
2024-05-09T01:39:26.869Z,465.00
2024-05-09T01:40:36.303Z,463.00
2024-05-09T01:41:27.886Z,462.00
2024-05-09T01:42:26.845Z,463.00
2024-05-09T01:43:26.822Z,461.00
2024-05-09T01:44:26.822Z,461.00
2024-05-09T01:45:26.788Z,460.00
2024-05-09T01:46:26.776Z,459.00
2024-05-09T01:47:26.995Z,460.00
2024-05-09T01:48:26.966Z,460.00
2024-05-09T01:49:26.858Z,460.00
2024-05-09T01:50:37.378Z,460.00
2024-05-09T01:51:27.752Z,462.00
2024-05-09T01:52:26.738Z,466.00
2024-05-09T01:53:26.756Z,465.00
2024-05-09T01:54:26.747Z,465.00
2024-05-09T01:55:26.741Z,466.00
2024-05-09T01:56:26.746Z,466.00
2024-05-09T01:57:26.703Z,465.00
2024-05-09T01:58:26.702Z,462.00
2024-05-09T01:59:26.782Z,459.00
2024-05-09T02:00:36.312Z,459.00
2024-05-09T02:01:27.722Z,460.00
2024-05-09T02:02:26.705Z,459.00
2024-05-09T02:03:26.811Z,463.00
2024-05-09T02:04:26.772Z,463.00
2024-05-09T02:05:26.694Z,461.00
2024-05-09T02:06:26.649Z,464.00
2024-05-09T02:07:26.657Z,465.00
2024-05-09T02:08:26.689Z,465.00
2024-05-09T02:09:26.611Z,465.00
2024-05-09T02:10:32.284Z,463.00
2024-05-09T02:11:27.672Z,462.00
2024-05-09T02:12:26.701Z,460.00
2024-05-09T02:13:26.628Z,459.00
2024-05-09T02:14:26.852Z,461.00
2024-05-09T02:15:26.602Z,459.00
2024-05-09T02:16:26.621Z,461.00
2024-05-09T02:17:26.862Z,461.00
2024-05-09T02:18:26.732Z,458.00
2024-05-09T02:19:26.720Z,459.00
2024-05-09T02:20:33.517Z,459.00
2024-05-09T02:21:27.597Z,463.00
2024-05-09T02:22:26.595Z,464.00
2024-05-09T02:23:26.605Z,464.00
2024-05-09T02:24:26.567Z,463.00
2024-05-09T02:25:26.579Z,463.00
2024-05-09T02:26:26.638Z,463.00
2024-05-09T02:27:26.579Z,462.00
2024-05-09T02:28:26.580Z,464.00
2024-05-09T02:29:26.679Z,464.00
2024-05-09T02:30:36.248Z,464.00
2024-05-09T02:31:27.675Z,466.00
2024-05-09T02:32:26.804Z,469.00
2024-05-09T02:33:26.861Z,465.00
2024-05-09T02:34:26.717Z,463.00
2024-05-09T02:35:26.851Z,463.00
2024-05-09T02:36:26.697Z,465.00
2024-05-09T02:37:26.679Z,464.00
2024-05-09T02:38:26.770Z,463.00
2024-05-09T02:39:26.691Z,461.00
2024-05-09T02:40:35.115Z,459.00
2024-05-09T02:41:27.782Z,457.00
2024-05-09T02:42:26.686Z,456.00
2024-05-09T02:43:26.726Z,458.00
2024-05-09T02:44:26.820Z,459.00
2024-05-09T02:45:26.706Z,460.00
2024-05-09T02:46:26.712Z,463.00
2024-05-09T02:47:26.842Z,464.00
2024-05-09T02:48:26.844Z,464.00
2024-05-09T02:49:26.813Z,465.00
2024-05-09T02:50:34.363Z,466.00
2024-05-09T02:51:27.754Z,467.00
2024-05-09T02:52:26.789Z,466.00
2024-05-09T02:53:26.830Z,469.00
2024-05-09T02:54:26.750Z,469.00
2024-05-09T02:55:26.790Z,470.00
2024-05-09T02:56:26.852Z,470.00
2024-05-09T02:57:26.816Z,472.00
2024-05-09T02:58:26.826Z,472.00
2024-05-09T02:59:26.906Z,470.00
2024-05-09T03:00:35.161Z,471.00
2024-05-09T03:01:27.891Z,469.00
2024-05-09T03:02:26.912Z,469.00
2024-05-09T03:03:27.507Z,471.00
2024-05-09T03:04:27.459Z,471.00
2024-05-09T03:05:26.879Z,474.00
2024-05-09T03:06:26.845Z,475.00
2024-05-09T03:07:26.872Z,471.00
2024-05-09T03:08:26.982Z,469.00
2024-05-09T03:09:26.831Z,467.00
2024-05-09T03:11:27.040Z,467.00
2024-05-09T03:12:27.106Z,465.00
2024-05-09T03:13:27.204Z,466.00
2024-05-09T03:14:27.195Z,465.00
2024-05-09T03:15:27.158Z,465.00
2024-05-09T03:16:27.193Z,465.00
2024-05-09T03:17:27.425Z,467.00
2024-05-09T03:18:27.460Z,466.00
2024-05-09T03:19:27.598Z,467.00
2024-05-09T03:20:32.978Z,463.00
2024-05-09T03:21:28.563Z,464.00
2024-05-09T03:22:27.582Z,461.00
2024-05-09T03:23:27.603Z,464.00
2024-05-09T03:24:27.560Z,464.00
2024-05-09T03:25:27.554Z,464.00
2024-05-09T03:26:27.674Z,461.00
2024-05-09T03:27:27.580Z,463.00
2024-05-09T03:28:27.595Z,464.00
2024-05-09T03:29:27.691Z,462.00
2024-05-09T03:30:36.028Z,459.00
2024-05-09T03:31:28.596Z,459.00
2024-05-09T03:32:27.837Z,461.00
2024-05-09T03:33:27.779Z,463.00
2024-05-09T03:34:27.648Z,463.00
2024-05-09T03:35:27.667Z,461.00
2024-05-09T03:36:27.630Z,460.00
2024-05-09T03:37:27.623Z,461.00
2024-05-09T03:38:27.730Z,459.00
2024-05-09T03:39:27.621Z,460.00
2024-05-09T03:40:30.845Z,460.00
2024-05-09T03:41:27.688Z,458.00
2024-05-09T03:42:27.664Z,459.00
2024-05-09T03:43:27.654Z,458.00
2024-05-09T03:44:27.711Z,457.00
2024-05-09T03:45:27.640Z,455.00
2024-05-09T03:46:27.660Z,455.00
2024-05-09T03:47:27.973Z,454.00
2024-05-09T03:48:27.826Z,456.00
2024-05-09T03:49:27.751Z,456.00
2024-05-09T03:50:33.703Z,454.00
2024-05-09T03:51:28.686Z,456.00
2024-05-09T03:52:27.720Z,455.00
2024-05-09T03:53:27.786Z,455.00
2024-05-09T03:54:27.713Z,456.00
2024-05-09T03:55:27.680Z,457.00
2024-05-09T03:56:27.793Z,458.00
2024-05-09T03:57:27.689Z,460.00
2024-05-09T03:58:27.698Z,461.00
2024-05-09T03:59:27.843Z,462.00
2024-05-09T04:00:35.248Z,461.00
2024-05-09T04:01:28.765Z,462.00
2024-05-09T04:02:27.770Z,464.00
2024-05-09T04:03:27.932Z,465.00
2024-05-09T04:04:27.724Z,467.00
2024-05-09T04:05:27.735Z,466.00
2024-05-09T04:06:27.723Z,464.00
2024-05-09T04:07:27.697Z,463.00
2024-05-09T04:08:27.706Z,464.00
2024-05-09T04:09:27.709Z,464.00
2024-05-09T04:10:32.807Z,462.00
2024-05-09T04:11:28.838Z,463.00
2024-05-09T04:12:27.867Z,460.00
2024-05-09T04:13:35.015Z,487.00
2024-05-09T04:14:35.058Z,484.00
2024-05-09T04:15:35.018Z,487.00
2024-05-09T04:16:34.997Z,486.00
2024-05-09T04:17:35.134Z,484.00
2024-05-09T04:18:35.095Z,482.00
2024-05-09T04:19:35.051Z,481.00
2024-05-09T04:20:39.026Z,482.00
2024-05-09T04:21:36.010Z,484.00
2024-05-09T04:22:35.213Z,483.00
2024-05-09T04:23:35.142Z,482.00
2024-05-09T04:24:35.044Z,483.00
2024-05-09T04:25:35.094Z,483.00
2024-05-09T04:26:35.135Z,482.00
2024-05-09T04:27:35.066Z,480.00
2024-05-09T04:28:35.028Z,476.00
2024-05-09T04:29:35.073Z,476.00
2024-05-09T04:30:39.205Z,477.00
2024-05-09T04:31:47.205Z,481.00
2024-05-09T04:32:47.304Z,480.00
2024-05-09T04:33:47.259Z,479.00
2024-05-09T04:34:47.228Z,478.00
2024-05-09T04:35:47.202Z,480.00
2024-05-09T04:36:47.145Z,482.00
2024-05-09T04:37:47.180Z,484.00
2024-05-09T04:38:47.201Z,483.00
2024-05-09T04:39:47.257Z,483.00
2024-05-09T04:40:47.369Z,482.00
2024-05-09T04:41:47.456Z,481.00
2024-05-09T04:42:47.524Z,481.00
2024-05-09T04:43:47.607Z,480.00
2024-05-09T04:44:47.703Z,478.00
2024-05-09T04:45:47.790Z,479.00
2024-05-09T04:46:47.964Z,482.00
2024-05-09T04:47:48.318Z,479.00
2024-05-09T04:48:48.224Z,481.00
2024-05-09T04:49:48.245Z,482.00
2024-05-09T04:50:48.376Z,481.00
2024-05-09T04:51:48.402Z,479.00
2024-05-09T04:52:48.537Z,478.00
2024-05-09T04:53:48.706Z,477.00
2024-05-09T04:54:48.718Z,476.00
2024-05-09T04:55:48.832Z,478.00
2024-05-09T04:56:48.899Z,479.00
2024-05-09T04:57:49.002Z,482.00
2024-05-09T04:58:49.102Z,481.00
2024-05-09T04:59:49.178Z,480.00
2024-05-09T05:00:49.307Z,482.00
2024-05-09T05:01:49.606Z,484.00
2024-05-09T05:02:49.592Z,482.00
2024-05-09T05:03:49.808Z,481.00
2024-05-09T05:04:49.974Z,483.00
2024-05-09T05:05:49.859Z,483.00
2024-05-09T05:06:49.882Z,481.00
2024-05-09T05:07:49.998Z,478.00
2024-05-09T05:08:50.022Z,478.00
2024-05-09T05:09:50.119Z,479.00
2024-05-09T05:10:50.400Z,477.00
2024-05-09T05:11:50.388Z,480.00
2024-05-09T05:12:50.392Z,482.00
2024-05-09T05:13:50.501Z,477.00
2024-05-09T05:14:50.547Z,478.00
2024-05-09T05:15:50.666Z,478.00
2024-05-09T05:16:50.761Z,476.00
2024-05-09T05:17:50.976Z,475.00
2024-05-09T05:18:50.980Z,479.00
2024-05-09T05:19:51.134Z,478.00
2024-05-09T05:20:51.394Z,476.00
2024-05-09T05:21:51.107Z,477.00
2024-05-09T05:22:51.226Z,477.00
2024-05-09T05:23:51.194Z,477.00
2024-05-09T05:24:51.272Z,479.00
2024-05-09T05:25:51.388Z,480.00
2024-05-09T05:26:51.330Z,479.00
2024-05-09T05:27:51.375Z,482.00
2024-05-09T05:28:51.451Z,483.00
2024-05-09T05:29:51.483Z,482.00
2024-05-09T05:30:51.535Z,481.00
2024-05-09T05:32:28.001Z,487.00
2024-05-09T05:33:28.160Z,486.00
2024-05-09T05:34:27.869Z,484.00
2024-05-09T05:35:28.030Z,484.00
2024-05-09T05:36:27.877Z,486.00
2024-05-09T05:37:27.862Z,485.00
2024-05-09T05:38:28.619Z,487.00
2024-05-09T05:39:27.847Z,488.00
2024-05-09T05:40:35.016Z,486.00
2024-05-09T05:41:28.988Z,485.00
2024-05-09T05:42:27.825Z,485.00
2024-05-09T05:43:27.815Z,484.00
2024-05-09T05:44:27.959Z,483.00
2024-05-09T05:45:27.788Z,481.00
2024-05-09T05:46:27.785Z,483.00
2024-05-09T05:47:27.947Z,483.00
2024-05-09T05:48:27.865Z,483.00
2024-05-09T05:49:27.817Z,481.00
2024-05-09T05:50:34.951Z,480.00
2024-05-09T05:51:28.747Z,479.00
2024-05-09T05:52:27.739Z,480.00
2024-05-09T05:53:27.759Z,479.00
2024-05-09T05:54:27.730Z,476.00
2024-05-09T05:55:27.694Z,476.00
2024-05-09T05:56:27.796Z,477.00
2024-05-09T05:57:27.808Z,474.00
2024-05-09T05:58:27.650Z,473.00
2024-05-09T05:59:27.663Z,474.00
2024-05-09T06:00:34.447Z,476.00
2024-05-09T06:01:28.681Z,473.00
2024-05-09T06:02:27.696Z,474.00
2024-05-09T06:03:27.654Z,472.00
2024-05-09T06:04:27.678Z,475.00
2024-05-09T06:05:27.890Z,476.00
2024-05-09T06:06:27.602Z,477.00
2024-05-09T06:07:27.606Z,474.00
2024-05-09T06:08:30.269Z,473.00
2024-05-09T06:09:27.581Z,473.00
2024-05-09T06:10:35.094Z,473.00
2024-05-09T06:11:28.666Z,473.00
2024-05-09T06:12:27.631Z,473.00
2024-05-09T06:13:27.540Z,474.00
2024-05-09T06:14:27.714Z,475.00
2024-05-09T06:15:27.523Z,473.00
2024-05-09T06:16:27.559Z,472.00
2024-05-09T06:17:27.634Z,474.00
2024-05-09T06:18:27.667Z,473.00
2024-05-09T06:19:27.596Z,473.00
2024-05-09T06:20:34.951Z,472.00
2024-05-09T06:21:28.572Z,472.00
2024-05-09T06:22:27.524Z,474.00
2024-05-09T06:23:28.075Z,475.00
2024-05-09T06:24:27.507Z,474.00
2024-05-09T06:25:27.480Z,474.00
2024-05-09T06:26:27.506Z,475.00
2024-05-09T06:27:27.486Z,475.00
2024-05-09T06:28:27.507Z,475.00
2024-05-09T06:29:27.715Z,475.00
2024-05-09T06:30:36.587Z,475.00
2024-05-09T06:31:28.448Z,476.00
2024-05-09T06:32:27.563Z,474.00
2024-05-09T06:33:27.678Z,473.00
2024-05-09T06:34:27.535Z,474.00
2024-05-09T06:35:27.553Z,474.00
2024-05-09T06:36:27.460Z,474.00
2024-05-09T06:37:27.460Z,473.00
2024-05-09T06:38:27.680Z,473.00
2024-05-09T06:39:27.480Z,474.00
2024-05-09T06:40:35.781Z,471.00
2024-05-09T06:41:28.559Z,470.00
2024-05-09T06:42:27.516Z,468.00
2024-05-09T06:43:27.522Z,471.00
2024-05-09T06:44:27.701Z,471.00
2024-05-09T06:45:27.519Z,474.00
2024-05-09T06:46:27.521Z,474.00
2024-05-09T06:47:27.617Z,474.00
2024-05-09T06:48:27.693Z,471.00
2024-05-09T06:49:27.621Z,469.00
2024-05-09T06:50:31.220Z,466.00
2024-05-09T06:51:28.581Z,466.00
2024-05-09T06:52:27.566Z,466.00
2024-05-09T06:53:27.597Z,466.00
2024-05-09T06:54:27.587Z,466.00
2024-05-09T06:55:27.613Z,468.00
2024-05-09T06:56:27.625Z,467.00
2024-05-09T06:57:27.602Z,469.00
2024-05-09T06:58:27.624Z,472.00
2024-05-09T06:59:27.656Z,471.00
2024-05-09T07:00:35.480Z,472.00
2024-05-09T07:01:28.837Z,473.00
2024-05-09T07:02:28.627Z,470.00
2024-05-09T07:03:27.863Z,469.00
2024-05-09T07:04:27.774Z,470.00
2024-05-09T07:05:28.656Z,471.00
2024-05-09T07:06:27.691Z,470.00
2024-05-09T07:07:27.700Z,469.00
2024-05-09T07:08:27.791Z,469.00
2024-05-09T07:09:27.715Z,467.00
2024-05-09T07:10:32.916Z,466.00
2024-05-09T07:11:28.780Z,465.00
2024-05-09T07:12:27.794Z,464.00
2024-05-09T07:13:27.742Z,462.00
2024-05-09T07:14:27.784Z,462.00
2024-05-09T07:15:27.718Z,463.00
2024-05-09T07:16:27.747Z,465.00
2024-05-09T07:17:27.925Z,466.00
2024-05-09T07:18:28.056Z,463.00
2024-05-09T07:19:27.977Z,462.00
2024-05-09T07:20:34.116Z,461.00
2024-05-09T07:21:28.761Z,461.00
2024-05-09T07:22:27.765Z,461.00
2024-05-09T07:23:27.817Z,461.00
2024-05-09T07:24:27.785Z,462.00
2024-05-09T07:25:27.787Z,460.00
2024-05-09T07:26:27.896Z,459.00
2024-05-09T07:27:27.790Z,459.00
2024-05-09T07:28:27.792Z,459.00
2024-05-09T07:29:27.958Z,461.00
2024-05-09T07:30:33.230Z,464.00
2024-05-09T07:31:28.816Z,463.00
2024-05-09T07:32:27.994Z,462.00
2024-05-09T07:33:27.898Z,461.00
2024-05-09T07:34:27.922Z,464.00
2024-05-09T07:35:28.045Z,462.00
2024-05-09T07:36:27.824Z,461.00
2024-05-09T07:37:27.843Z,461.00
2024-05-09T07:38:27.863Z,462.00
2024-05-09T07:39:27.811Z,464.00
2024-05-09T07:40:34.590Z,468.00
2024-05-09T07:41:28.926Z,468.00
2024-05-09T07:42:27.832Z,465.00
2024-05-09T07:43:27.847Z,469.00
2024-05-09T07:44:27.953Z,470.00
2024-05-09T07:45:44.964Z,471.00
2024-05-09T07:47:36.814Z,472.00
2024-05-09T07:48:57.151Z,472.00
2024-05-09T07:50:01.059Z,469.00
2024-05-09T07:53:32.389Z,462.00
2024-05-09T07:53:39.981Z,462.00
2024-05-09T07:54:28.941Z,464.00
2024-05-09T07:55:28.029Z,464.00
2024-05-09T07:56:28.218Z,465.00
2024-05-09T07:57:27.862Z,465.00
2024-05-09T07:58:28.039Z,463.00
2024-05-09T07:59:27.814Z,462.00
2024-05-09T08:00:31.471Z,463.00
2024-05-09T08:01:27.935Z,462.00
2024-05-09T08:02:27.960Z,462.00
2024-05-09T08:03:27.915Z,462.00
2024-05-09T08:04:27.789Z,461.00
2024-05-09T08:05:27.906Z,460.00
2024-05-09T08:06:27.766Z,463.00
2024-05-09T08:07:27.691Z,463.00
2024-05-09T08:08:27.691Z,461.00
2024-05-09T08:09:27.743Z,460.00
2024-05-09T08:10:29.168Z,460.00
2024-05-09T08:11:27.664Z,461.00
2024-05-09T08:12:27.636Z,461.00
2024-05-09T08:13:27.626Z,464.00
2024-05-09T08:14:27.569Z,464.00
2024-05-09T08:15:27.642Z,464.00
2024-05-09T08:16:27.725Z,464.00
2024-05-09T08:17:27.624Z,466.00
2024-05-09T08:18:27.677Z,465.00
2024-05-09T08:19:27.579Z,463.00
2024-05-09T08:20:33.411Z,462.00
2024-05-09T08:21:28.511Z,464.00
2024-05-09T08:22:27.458Z,465.00
2024-05-09T08:23:27.465Z,464.00
2024-05-09T08:24:28.087Z,463.00
2024-05-09T08:25:27.519Z,466.00
2024-05-09T08:26:27.415Z,464.00
2024-05-09T08:27:27.437Z,466.00
2024-05-09T08:28:27.455Z,465.00
2024-05-09T08:29:27.390Z,463.00
2024-05-09T08:30:33.659Z,462.00
2024-05-09T08:31:28.570Z,462.00
2024-05-09T08:32:27.560Z,459.00
2024-05-09T08:33:27.633Z,458.00
2024-05-09T08:34:27.528Z,456.00
2024-05-09T08:35:27.376Z,455.00
2024-05-09T08:36:27.420Z,455.00
2024-05-09T08:37:31.093Z,454.00
2024-05-09T08:38:28.361Z,453.00
2024-05-09T08:39:27.354Z,455.00
2024-05-09T08:40:33.605Z,457.00
2024-05-09T08:41:28.325Z,458.00
2024-05-09T08:42:27.293Z,456.00
2024-05-09T08:43:27.334Z,456.00
2024-05-09T08:44:27.262Z,457.00
2024-05-09T08:45:27.332Z,456.00
2024-05-09T08:46:27.381Z,456.00
2024-05-09T08:47:27.361Z,458.00
2024-05-09T08:48:27.379Z,457.00
2024-05-09T08:49:27.294Z,458.00
2024-05-09T08:50:35.608Z,458.00
2024-05-09T08:51:28.283Z,457.00
2024-05-09T08:52:27.174Z,456.00
2024-05-09T08:53:27.163Z,457.00
2024-05-09T08:54:27.201Z,456.00
2024-05-09T08:55:27.134Z,456.00
2024-05-09T08:56:27.124Z,457.00
2024-05-09T08:57:27.209Z,459.00
2024-05-09T08:58:27.131Z,459.00
2024-05-09T08:59:27.115Z,459.00
2024-05-09T09:00:34.138Z,458.00
2024-05-09T09:01:28.171Z,459.00
2024-05-09T09:02:27.168Z,458.00
2024-05-09T09:03:27.194Z,458.00
2024-05-09T09:04:27.112Z,462.00
2024-05-09T09:05:27.291Z,462.00
2024-05-09T09:06:27.147Z,462.00
2024-05-09T09:07:27.159Z,461.00
2024-05-09T09:08:26.966Z,462.00
2024-05-09T09:09:27.071Z,462.00
2024-05-09T09:10:31.994Z,461.00
2024-05-09T09:11:27.975Z,461.00
2024-05-09T09:12:26.951Z,460.00
2024-05-09T09:13:26.910Z,460.00
2024-05-09T09:14:26.886Z,462.00
2024-05-09T09:15:27.006Z,461.00
2024-05-09T09:16:26.922Z,459.00
2024-05-09T09:17:26.930Z,456.00
2024-05-09T09:18:27.327Z,458.00
2024-05-09T09:19:26.976Z,459.00
2024-05-09T09:20:33.984Z,461.00
2024-05-09T09:21:27.811Z,461.00
2024-05-09T09:22:26.801Z,461.00
2024-05-09T09:23:26.744Z,461.00
2024-05-09T09:24:26.808Z,461.00
2024-05-09T09:25:26.733Z,460.00
2024-05-09T09:26:26.711Z,458.00
2024-05-09T09:27:26.738Z,456.00
2024-05-09T09:28:26.690Z,458.00
2024-05-09T09:29:26.678Z,459.00
2024-05-09T09:30:35.360Z,457.00
2024-05-09T09:31:27.828Z,459.00
2024-05-09T09:32:26.752Z,460.00
2024-05-09T09:33:26.760Z,459.00
2024-05-09T09:34:26.735Z,459.00
2024-05-09T09:35:26.648Z,461.00
2024-05-09T09:36:26.646Z,465.00
2024-05-09T09:37:26.628Z,466.00
2024-05-09T09:38:26.591Z,466.00
2024-05-09T09:39:26.574Z,466.00
2024-05-09T09:40:31.967Z,464.00
2024-05-09T09:41:27.611Z,464.00
2024-05-09T09:42:26.607Z,462.00
2024-05-09T09:43:26.668Z,461.00
2024-05-09T09:44:26.555Z,458.00
2024-05-09T09:45:26.578Z,459.00
2024-05-09T09:46:26.708Z,459.00
2024-05-09T09:47:26.593Z,458.00
2024-05-09T09:48:26.572Z,459.00
2024-05-09T09:49:26.539Z,459.00
2024-05-09T09:50:33.505Z,461.00
2024-05-09T09:51:27.590Z,462.00
2024-05-09T09:52:26.517Z,461.00
2024-05-09T09:53:26.441Z,462.00
2024-05-09T09:54:26.436Z,462.00
2024-05-09T09:55:26.450Z,460.00
2024-05-09T09:56:26.371Z,464.00
2024-05-09T09:57:26.370Z,465.00
2024-05-09T09:58:26.668Z,466.00
2024-05-09T09:59:26.307Z,468.00
2024-05-09T10:00:30.698Z,470.00
2024-05-09T10:01:27.416Z,468.00
2024-05-09T10:02:26.398Z,467.00
2024-05-09T10:03:26.397Z,466.00
2024-05-09T10:04:26.353Z,465.00
2024-05-09T10:05:26.578Z,464.00
2024-05-09T10:06:26.224Z,464.00
2024-05-09T10:07:26.236Z,464.00
2024-05-09T10:08:26.180Z,466.00
2024-05-09T10:09:26.173Z,465.00
2024-05-09T10:10:32.154Z,462.00
2024-05-09T10:11:27.307Z,463.00
2024-05-09T10:12:26.238Z,465.00
2024-05-09T10:13:26.337Z,464.00
2024-05-09T10:14:26.168Z,464.00
2024-05-09T10:15:26.149Z,462.00
2024-05-09T10:16:26.186Z,462.00
2024-05-09T10:17:26.179Z,462.00
2024-05-09T10:18:29.217Z,462.00
2024-05-09T10:19:27.178Z,460.00
2024-05-09T10:20:30.848Z,461.00
2024-05-09T10:21:27.077Z,462.00
2024-05-09T10:22:26.119Z,461.00
2024-05-09T10:23:26.014Z,463.00
2024-05-09T10:24:25.991Z,462.00
2024-05-09T10:25:26.006Z,461.00
2024-05-09T10:26:25.972Z,461.00
2024-05-09T10:27:25.957Z,461.00
2024-05-09T10:28:25.964Z,458.00
2024-05-09T10:29:25.930Z,458.00
2024-05-09T10:30:33.672Z,456.00
2024-05-09T10:31:27.004Z,455.00
2024-05-09T10:32:26.010Z,454.00
2024-05-09T10:33:26.022Z,453.00
2024-05-09T10:34:26.256Z,453.00
2024-05-09T10:35:25.913Z,453.00
2024-05-09T10:36:25.897Z,454.00
2024-05-09T10:37:25.932Z,454.00
2024-05-09T10:38:25.863Z,453.00
2024-05-09T10:39:25.921Z,451.00
2024-05-09T10:40:31.056Z,452.00
2024-05-09T10:41:26.896Z,453.00
2024-05-09T10:42:25.887Z,453.00
2024-05-09T10:43:25.898Z,452.00
2024-05-09T10:44:25.803Z,454.00
2024-05-09T10:45:25.820Z,453.00
2024-05-09T10:46:25.839Z,457.00
2024-05-09T10:47:25.870Z,453.00
2024-05-09T10:48:25.847Z,452.00
2024-05-09T10:49:25.930Z,449.00
2024-05-09T10:50:29.103Z,448.00
2024-05-09T10:51:26.827Z,448.00
2024-05-09T10:52:25.795Z,451.00
2024-05-09T10:53:25.778Z,453.00
2024-05-09T10:54:25.759Z,455.00
2024-05-09T10:55:25.899Z,454.00
2024-05-09T10:56:25.727Z,453.00
2024-05-09T10:57:25.703Z,454.00
2024-05-09T10:58:25.686Z,454.00
2024-05-09T10:59:25.710Z,457.00
2024-05-09T11:00:33.084Z,457.00
2024-05-09T11:01:26.792Z,459.00
2024-05-09T11:02:25.876Z,458.00
2024-05-09T11:03:25.859Z,460.00
2024-05-09T11:04:25.720Z,460.00
2024-05-09T11:05:25.758Z,459.00
2024-05-09T11:06:25.658Z,460.00
2024-05-09T11:07:25.665Z,462.00
2024-05-09T11:08:25.598Z,462.00
2024-05-09T11:09:25.581Z,462.00
2024-05-09T11:10:33.330Z,462.00
2024-05-09T11:11:26.666Z,464.00
2024-05-09T11:12:25.642Z,461.00
2024-05-09T11:13:25.646Z,458.00
2024-05-09T11:14:25.592Z,461.00
2024-05-09T11:15:25.564Z,461.00
2024-05-09T11:16:25.595Z,463.00
2024-05-09T11:17:25.682Z,463.00
2024-05-09T11:18:26.728Z,461.00
2024-05-09T11:19:25.732Z,461.00
2024-05-09T11:20:29.695Z,462.00
2024-05-09T11:21:25.532Z,462.00
2024-05-09T11:22:25.610Z,462.00
2024-05-09T11:23:25.482Z,458.00
2024-05-09T11:24:25.477Z,457.00
2024-05-09T11:25:25.573Z,457.00
2024-05-09T11:26:25.568Z,458.00
2024-05-09T11:27:25.415Z,458.00
2024-05-09T11:28:25.455Z,458.00
2024-05-09T11:29:25.375Z,456.00
2024-05-09T11:30:30.172Z,460.00
2024-05-09T11:31:26.504Z,459.00
2024-05-09T11:32:25.549Z,461.00
2024-05-09T11:33:25.343Z,461.00
2024-05-09T11:34:25.388Z,464.00
2024-05-09T11:35:25.243Z,463.00
2024-05-09T11:36:25.291Z,463.00
2024-05-09T11:37:25.322Z,463.00
2024-05-09T11:38:25.245Z,459.00
2024-05-09T11:39:25.279Z,462.00
2024-05-09T11:40:28.643Z,463.00
2024-05-09T11:41:26.190Z,465.00
2024-05-09T11:42:25.176Z,466.00
2024-05-09T11:43:25.182Z,463.00
2024-05-09T11:44:25.111Z,461.00
2024-05-09T11:45:25.106Z,461.00
2024-05-09T11:46:25.142Z,461.00
2024-05-09T11:47:25.228Z,460.00
2024-05-09T11:48:25.471Z,461.00
2024-05-09T11:49:27.029Z,461.00
2024-05-09T11:50:29.979Z,460.00
2024-05-09T11:51:26.036Z,462.00
2024-05-09T11:52:25.036Z,463.00
2024-05-09T11:53:24.990Z,463.00
2024-05-09T11:54:24.941Z,467.00
2024-05-09T11:55:27.549Z,467.00
2024-05-09T11:56:24.927Z,468.00
2024-05-09T11:57:25.682Z,467.00
2024-05-09T11:58:24.929Z,465.00
2024-05-09T11:59:24.890Z,465.00
2024-05-09T12:00:33.206Z,464.00
2024-05-09T12:01:27.918Z,463.00
2024-05-09T12:02:24.839Z,463.00
2024-05-09T12:03:24.846Z,465.00
2024-05-09T12:04:24.915Z,464.00
2024-05-09T12:05:24.892Z,463.00
2024-05-09T12:06:24.693Z,462.00
2024-05-09T12:07:24.732Z,462.00
2024-05-09T12:08:24.674Z,459.00
2024-05-09T12:09:24.657Z,458.00
2024-05-09T12:10:32.121Z,457.00
2024-05-09T12:11:25.640Z,457.00
2024-05-09T12:12:24.586Z,456.00
2024-05-09T12:13:24.718Z,452.00
2024-05-09T12:14:24.557Z,452.00
2024-05-09T12:15:24.535Z,452.00
2024-05-09T12:16:24.867Z,452.00
2024-05-09T12:17:24.604Z,456.00
2024-05-09T12:18:24.553Z,454.00
2024-05-09T12:19:24.604Z,454.00
2024-05-09T12:20:32.388Z,455.00
2024-05-09T12:21:25.478Z,455.00
2024-05-09T12:22:24.504Z,453.00
2024-05-09T12:23:24.442Z,456.00
2024-05-09T12:24:24.419Z,456.00
2024-05-09T12:25:24.434Z,454.00
2024-05-09T12:26:24.378Z,454.00
2024-05-09T12:27:24.377Z,457.00
2024-05-09T12:28:24.623Z,455.00
2024-05-09T12:29:24.319Z,454.00
2024-05-09T12:30:33.263Z,452.00
2024-05-09T12:31:25.452Z,452.00
2024-05-09T12:32:24.400Z,455.00
2024-05-09T12:33:24.534Z,456.00
2024-05-09T12:34:24.326Z,457.00
2024-05-09T12:35:24.198Z,453.00